Hlavní strana
METAR-TAF:

METAR-TAF

Letiště :

Letiště Sofie

Sofie, Bulharsko

zeměpisná šířka: 42-39N, zeměpisná délka: 023-23E, výška: 586 m

Aktuální stav počasí

Zpráva byla vytvořena před 25 minutami, v 09:00 UTC
vítr z různých směrů 2 kt
Teplota 21°C
Vlhkost vzduchu 49%
Tlak 1022 hPa
Viditelnost 10 km a více
Žádná oblačnost pod 1500 m, nevyskytují se cumulonimby.

METAR: LBSF 200900Z VRB02KT CAVOK 21/10 Q1022 NOSIG

Čas: 12:25 (09:25 UTC)

Předpověď počasí

Zpráva byla vytvořena před 4 hodinami a 25 minutami, v 05:00 UTC
Předpověď platná od 20 v 06 UTC do 21 v 06 UTC
vítr z různých směrů 4 kt
Viditelnost 10 km a více
Žádná oblačnost pod 1500 m, nevyskytují se cumulonimby.
Změna
od 20 v 09 UTC do 20 v 11 UTC
Východní vítr 10 kt
Změna
od 21 v 01 UTC do 21 v 03 UTC
vítr z různých směrů 4 kt

TAF: LBSF 200500Z 2006/2106 VRB04KT CAVOK BECMG 2009/2011 08010KT BECMG 2101/2103 VRB04KT

Stav a předpovědi počasí z více než 4 000 letišť (zprávy METAR a TAF).

Červené a žluté tečky na mapě představují dostupné meteorologické stanice.

Když kurzor umístíte na tečku, zobrazí se název stanice.

Pak kliknutím zobrazíte stav a předpověď počasí.

Chcete-li změnit mapu, kliknutím na zelené tlačítko se znaménkem +mapu přiblížíte, kliknutím na zelené tlačítko se znaménkem – mapu oddálíte a kliknutím na zelené šipky přejdete na sousední mapy.


METAR-TAF: